Time;durP1;ratioP1;P1;durP2;ratioP2;P2;SDS_P1;SDS_P2;PMS_P1;PMS_P2;Temp;Humidity;BMP_temperature;BMP_pressure;BME280_temperature;BME280_humidity;BME280_pressure;Samples;Min_cycle;Max_cycle;Signal;HPM_P1;HPM_P2
2022/04/18 00:00:04;;;;;;;11.53;5.90;;;;;;;5.71;67.00;102555.25;5052166;28;20189;-68
2022/04/18 00:02:34;;;;;;;9.97;6.33;;;;;;;5.64;67.42;102558.16;5050871;28;20381;-70
2022/04/18 00:04:59;;;;;;;8.40;5.50;;;;;;;5.54;68.14;102551.59;5056535;28;20224;-70
2022/04/18 00:07:24;;;;;;;9.40;4.90;;;;;;;5.53;68.10;102542.19;5047209;28;20213;-67
2022/04/18 00:09:50;;;;;;;9.87;5.73;;;;;;;5.47;68.59;102548.53;5048048;28;20295;-70
2022/04/18 00:12:15;;;;;;;9.43;6.50;;;;;;;5.34;69.45;102543.44;5050073;28;20228;-69
2022/04/18 00:14:40;;;;;;;9.33;5.83;;;;;;;5.28;69.44;102551.50;5048864;28;20225;-69
2022/04/18 00:17:09;;;;;;;11.37;6.27;;;;;;;5.17;70.65;102547.38;5049282;28;20221;-70
2022/04/18 00:19:38;;;;;;;10.03;6.63;;;;;;;5.21;70.50;102549.31;5048264;28;20205;-70
2022/04/18 00:22:05;;;;;;;11.27;6.73;;;;;;;5.14;70.12;102539.53;5049170;28;20186;-70
2022/04/18 00:24:30;;;;;;;11.20;6.40;;;;;;;5.14;70.67;102542.06;5049962;28;20217;-69
2022/04/18 00:26:56;;;;;;;14.67;7.33;;;;;;;5.01;70.42;102542.00;5046997;28;20182;-70
2022/04/18 00:29:21;;;;;;;13.27;6.73;;;;;;;4.94;70.36;102541.47;5049558;28;20205;-67
2022/04/18 00:31:47;;;;;;;11.20;6.37;;;;;;;4.85;70.54;102538.31;5050088;28;20178;-69
2022/04/18 00:34:14;;;;;;;8.30;5.53;;;;;;;4.89;70.22;102533.56;5051442;28;20228;-68
2022/04/18 00:36:40;;;;;;;10.87;6.60;;;;;;;4.87;70.39;102526.59;5056471;28;20185;-69
2022/04/18 00:39:05;;;;;;;12.77;6.97;;;;;;;4.77;71.36;102525.09;5055584;28;20190;-69
2022/04/18 00:41:30;;;;;;;11.53;6.70;;;;;;;4.71;70.76;102531.41;5048128;28;20193;-67
2022/04/18 00:43:56;;;;;;;11.27;6.70;;;;;;;4.72;71.41;102525.53;5056887;28;20632;-68
2022/04/18 00:46:21;;;;;;;15.57;7.70;;;;;;;4.67;71.61;102524.34;5056980;28;20213;-68
2022/04/18 00:48:47;;;;;;;13.27;7.23;;;;;;;4.57;71.45;102520.31;5048238;28;20204;-68
2022/04/18 00:51:15;;;;;;;12.37;6.87;;;;;;;4.50;71.77;102532.41;5056578;28;20259;-68
2022/04/18 00:53:42;;;;;;;18.37;8.77;;;;;;;4.43;72.15;102521.00;5047817;28;20216;-68
2022/04/18 00:56:09;;;;;;;16.13;8.10;;;;;;;4.46;71.70;102513.59;5047558;28;20209;-68
2022/04/18 00:58:36;;;;;;;14.63;7.40;;;;;;;4.38;72.94;102512.16;5036160;28;20182;-68
2022/04/18 01:01:02;;;;;;;13.30;6.43;;;;;;;4.45;72.36;102513.47;5052858;28;20573;-68
2022/04/18 01:03:30;;;;;;;11.47;6.60;;;;;;;4.49;72.54;102511.28;5052192;28;20182;-68
2022/04/18 01:06:00;;;;;;;9.20;5.83;;;;;;;4.41;72.07;102508.94;5047948;28;20205;-68
2022/04/18 01:08:28;;;;;;;8.67;5.93;;;;;;;4.40;71.63;102507.19;5048539;28;20205;-68
2022/04/18 01:10:54;;;;;;;8.27;5.67;;;;;;;4.36;72.09;102511.19;5026798;28;20183;-68
2022/04/18 01:13:23;;;;;;;11.23;5.73;;;;;;;4.26;72.37;102513.84;5061686;28;20189;-68
2022/04/18 01:15:56;;;;;;;14.73;8.50;;;;;;;4.19;72.59;102505.69;5055112;28;20220;-67
2022/04/18 01:18:39;;;;;;;29.67;13.70;;;;;;;4.25;72.30;102504.47;5045948;28;20181;-68
2022/04/18 01:21:25;;;;;;;50.63;20.87;;;;;;;4.18;73.42;102502.28;5045610;28;20250;-68
2022/04/18 01:29:57;;;;;;;123.20;44.67;;;;;;;4.13;73.34;102493.47;5052080;28;20186;-68
2022/04/18 01:32:22;;;;;;;113.97;41.50;;;;;;;4.12;73.31;102490.81;5053786;28;20185;-67
2022/04/18 01:34:48;;;;;;;121.30;43.07;;;;;;;4.10;73.52;102492.38;5054360;28;20714;-68
2022/04/18 01:37:14;;;;;;;95.07;36.97;;;;;;;4.02;73.47;102485.88;5054769;28;20186;-67
2022/04/18 01:39:39;;;;;;;75.17;30.50;;;;;;;3.97;73.67;102485.56;5046012;28;20758;-68
2022/04/18 01:42:05;;;;;;;61.00;27.30;;;;;;;3.93;74.54;102490.28;5053940;28;20255;-69
2022/04/18 01:44:30;;;;;;;67.70;29.37;;;;;;;3.94;74.36;102487.84;5061606;28;20739;-68
2022/04/18 01:46:55;;;;;;;68.33;26.63;;;;;;;3.87;74.63;102483.09;5051426;28;20193;-67
2022/04/18 01:49:23;;;;;;;50.87;22.43;;;;;;;3.83;74.92;102488.75;5055286;28;20298;-67
2022/04/18 01:51:48;;;;;;;56.67;26.97;;;;;;;3.80;74.97;102488.50;5052496;28;20683;-70
2022/04/18 01:54:14;;;;;;;57.13;25.33;;;;;;;3.80;74.49;102495.22;5052835;28;20272;-70
2022/04/18 01:56:40;;;;;;;56.77;24.90;;;;;;;3.86;75.44;102485.56;5032107;28;20188;-69
2022/04/18 01:59:05;;;;;;;42.37;20.07;;;;;;;3.81;75.62;102480.13;5059920;28;20642;-69
2022/04/18 02:01:31;;;;;;;44.33;20.73;;;;;;;3.71;75.27;102479.34;5065083;28;20201;-70
2022/04/18 02:03:56;;;;;;;41.40;19.00;;;;;;;3.70;75.60;102477.59;5053937;28;20186;-69
2022/04/18 02:06:22;;;;;;;35.43;17.83;;;;;;;3.58;75.38;102477.59;5051533;28;20205;-70
2022/04/18 02:08:47;;;;;;;36.73;16.40;;;;;;;3.60;75.48;102465.94;5062843;28;20205;-69
2022/04/18 02:11:15;;;;;;;26.67;14.47;;;;;;;3.52;75.15;102468.66;5054114;28;20191;-70
2022/04/18 02:13:40;;;;;;;28.27;14.07;;;;;;;3.50;75.57;102467.69;5049561;28;20523;-69
2022/04/18 02:16:08;;;;;;;30.53;14.40;;;;;;;3.51;75.78;102462.72;5066571;28;20212;-69
2022/04/18 02:18:37;;;;;;;23.23;12.17;;;;;;;3.42;75.61;102462.06;5065388;28;20301;-70
2022/04/18 02:21:03;;;;;;;22.33;12.57;;;;;;;3.43;76.25;102453.69;5060502;28;20196;-69
2022/04/18 02:23:28;;;;;;;21.83;11.30;;;;;;;3.42;76.29;102459.53;5051795;28;20571;-69
2022/04/18 02:25:53;;;;;;;17.90;10.10;;;;;;;3.40;75.32;102453.44;5068530;28;20240;-70
2022/04/18 02:28:19;;;;;;;20.53;10.50;;;;;;;3.37;75.74;102448.19;5055695;28;20209;-70
2022/04/18 02:30:49;;;;;;;19.23;10.73;;;;;;;3.33;75.55;102445.28;5045500;28;20200;-70
2022/04/18 02:33:15;;;;;;;17.30;10.33;;;;;;;3.33;76.70;102453.78;5054068;28;20194;-70
2022/04/18 02:35:41;;;;;;;15.87;9.67;;;;;;;3.28;76.89;102454.19;5057178;28;20205;-69
2022/04/18 02:38:06;;;;;;;19.30;9.67;;;;;;;3.27;77.82;102449.91;5055029;28;20350;-70
2022/04/18 02:40:37;;;;;;;16.33;9.87;;;;;;;3.29;78.28;102443.31;5047308;28;20239;-70
2022/04/18 02:43:04;;;;;;;22.60;11.40;;;;;;;3.25;78.01;102446.38;5051268;28;20581;-70
2022/04/18 02:45:31;;;;;;;31.20;14.53;;;;;;;3.18;78.51;102446.72;5050750;28;20221;-69
2022/04/18 02:48:09;;;;;;;35.53;15.13;;;;;;;3.16;79.22;102450.75;5050194;28;20261;-69
2022/04/18 02:50:37;;;;;;;34.97;18.00;;;;;;;3.26;78.87;102443.09;5051758;28;20222;-69
2022/04/18 02:53:08;;;;;;;45.90;21.87;;;;;;;3.18;79.16;102441.66;5060096;28;20264;-69
2022/04/18 02:55:41;;;;;;;50.33;23.70;;;;;;;3.15;77.76;102438.88;5048910;28;20639;-69
2022/04/18 02:58:06;;;;;;;58.97;26.67;;;;;;;3.17;77.31;102434.84;5054992;28;20268;-69
2022/04/18 03:00:34;;;;;;;60.10;26.03;;;;;;;3.12;77.79;102431.94;5056998;28;20205;-69
2022/04/18 03:02:59;;;;;;;58.27;28.33;;;;;;;3.10;77.78;102438.56;5055531;28;20209;-69
2022/04/18 03:05:25;;;;;;;68.37;28.93;;;;;;;3.05;78.75;102426.31;5049799;28;20204;-69
2022/04/18 03:07:51;;;;;;;59.80;27.17;;;;;;;3.00;78.49;102427.63;5060609;28;20210;-69
2022/04/18 03:11:02;;;;;;;54.13;25.43;;;;;;;2.94;78.98;102425.50;5039754;28;20586;-69
2022/04/18 03:13:03;;;;;;;50.67;22.37;;;;;;;2.92;78.38;102416.03;5044622;28;20193;-67
2022/04/18 03:15:29;;;;;;;39.70;19.70;;;;;;;2.92;78.83;102416.03;5049064;28;20205;-69
2022/04/18 03:17:54;;;;;;;30.47;17.00;;;;;;;2.93;79.05;102416.16;5050960;28;20182;-69
2022/04/18 03:20:20;;;;;;;28.83;15.67;;;;;;;2.85;78.68;102417.22;5049207;28;20197;-69
2022/04/18 03:22:45;;;;;;;24.17;13.93;;;;;;;2.79;78.85;102413.34;5048701;28;20201;-69
2022/04/18 03:25:16;;;;;;;26.17;13.87;;;;;;;2.74;79.46;102402.91;5057622;28;20218;-69
2022/04/18 03:27:42;;;;;;;25.73;14.13;;;;;;;2.78;78.49;102406.53;5063491;28;20205;-70
2022/04/18 03:30:07;;;;;;;24.20;12.33;;;;;;;2.74;78.07;102414.66;5048531;28;20234;-69
2022/04/18 03:32:41;;;;;;;22.53;11.40;;;;;;;2.68;79.26;102409.16;5054748;28;20551;-68
2022/04/18 03:35:07;;;;;;;19.77;11.53;;;;;;;2.68;79.12;102410.06;5054202;28;20208;-68
2022/04/18 03:40:17;;;;;;;18.37;12.03;;;;;;;2.61;79.80;102406.91;5058273;28;20185;-68
2022/04/18 03:42:43;;;;;;;20.70;12.60;;;;;;;2.52;79.68;102413.84;5046973;28;20235;-68
2022/04/18 03:45:13;;;;;;;19.13;12.10;;;;;;;2.49;80.01;102411.06;5050251;28;20867;-69
2022/04/18 03:47:38;;;;;;;21.17;11.73;;;;;;;2.43;79.35;102408.94;5047315;28;20227;-68
2022/04/18 03:50:07;;;;;;;20.23;12.13;;;;;;;2.48;79.95;102407.63;5051070;28;20591;-68
2022/04/18 03:52:36;;;;;;;18.17;11.70;;;;;;;2.42;80.25;102403.75;5048858;28;20556;-68
2022/04/18 03:55:02;;;;;;;22.60;11.07;;;;;;;2.41;79.99;102402.00;5054520;28;20205;-69
2022/04/18 03:57:33;;;;;;;19.20;10.60;;;;;;;2.39;80.33;102403.53;5048947;28;20221;-70
2022/04/18 04:00:06;;;;;;;19.10;11.33;;;;;;;2.48;79.47;102405.09;5032554;28;20186;-70
2022/04/18 04:02:39;;;;;;;18.00;11.00;;;;;;;2.48;80.69;102406.78;5051217;28;20291;-69
2022/04/18 04:05:05;;;;;;;19.67;11.77;;;;;;;2.46;80.83;102399.06;5046398;28;20753;-69
2022/04/18 04:07:31;;;;;;;19.20;11.53;;;;;;;2.44;80.28;102394.66;5044522;28;20225;-69
2022/04/18 04:10:19;;;;;;;22.13;11.60;;;;;;;2.39;80.81;102391.78;5050923;28;20193;-69
2022/04/18 04:12:44;;;;;;;18.27;11.37;;;;;;;2.40;80.21;102390.13;5048158;28;20263;-68
2022/04/18 04:15:28;;;;;;;20.50;10.87;;;;;;;2.38;80.37;102391.66;5048644;28;20236;-69
2022/04/18 04:18:01;;;;;;;19.23;12.63;;;;;;;2.37;81.53;102389.88;5032654;28;20185;-69
2022/04/18 04:20:27;;;;;;;17.77;11.20;;;;;;;2.41;82.58;102391.91;5065008;28;20268;-68
2022/04/18 04:22:53;;;;;;;20.07;12.33;;;;;;;2.38;82.02;102392.53;5064867;28;20197;-69
2022/04/18 04:25:34;;;;;;;17.23;10.53;;;;;;;2.40;82.29;102392.66;5056153;28;20206;-69
2022/04/18 04:27:59;;;;;;;18.43;11.27;;;;;;;2.45;82.57;102387.19;5049837;28;20229;-69
2022/04/18 04:30:25;;;;;;;15.27;10.67;;;;;;;2.49;84.33;102385.78;5047822;28;20213;-68
2022/04/18 04:32:58;;;;;;;16.90;10.87;;;;;;;2.42;85.25;102386.06;5044534;28;20277;-68
2022/04/18 04:35:23;;;;;;;19.23;10.73;;;;;;;2.41;85.08;102381.78;5047208;28;20288;-68
2022/04/18 04:38:00;;;;;;;17.43;10.77;;;;;;;2.42;85.11;102373.44;5047206;28;20181;-68
2022/04/18 04:40:45;;;;;;;17.03;10.23;;;;;;;2.34;84.73;102380.44;5048502;28;20190;-69
2022/04/18 04:43:13;;;;;;;15.37;10.17;;;;;;;2.44;84.83;102377.84;5047437;28;20216;-68
2022/04/18 04:45:44;;;;;;;16.83;10.43;;;;;;;2.40;84.14;102378.41;5047979;28;20217;-68
2022/04/18 04:48:30;;;;;;;21.30;12.00;;;;;;;2.41;84.16;102376.72;5063297;28;20221;-68
2022/04/18 04:51:01;;;;;;;20.10;11.37;;;;;;;2.39;83.74;102376.59;5048101;28;20671;-69
2022/04/18 04:53:27;;;;;;;19.87;11.33;;;;;;;2.45;83.24;102377.09;5031403;28;20185;-70
2022/04/18 04:55:54;;;;;;;19.37;11.53;;;;;;;2.50;82.86;102378.31;5064307;28;20284;-68
2022/04/18 04:58:20;;;;;;;23.83;12.67;;;;;;;2.55;83.38;102373.59;5064737;28;20659;-68
2022/04/18 05:00:52;;;;;;;20.23;11.67;;;;;;;2.57;83.22;102377.13;5048508;28;20192;-68
2022/04/18 05:03:38;;;;;;;22.97;12.63;;;;;;;2.71;83.49;102381.59;5047869;28;20193;-68
2022/04/18 05:06:06;;;;;;;21.00;11.83;;;;;;;2.83;83.42;102382.47;5046561;28;20271;-68
2022/04/18 05:08:35;;;;;;;16.67;11.00;;;;;;;2.95;83.35;102380.88;5047605;28;20847;-69
2022/04/18 05:11:02;;;;;;;20.03;11.27;;;;;;;3.10;83.35;102382.88;5046785;28;20199;-69
2022/04/18 05:13:48;;;;;;;15.30;10.53;;;;;;;3.26;84.42;102380.69;5047776;28;20923;-68
2022/04/18 05:16:16;;;;;;;14.70;9.67;;;;;;;3.40;84.40;102377.50;5047524;28;20690;-68
2022/04/18 05:18:51;;;;;;;16.80;10.73;;;;;;;3.55;83.79;102383.66;5047534;28;20177;-68
2022/04/18 05:21:17;;;;;;;15.90;9.93;;;;;;;3.68;83.56;102373.66;5047456;28;20268;-68
2022/04/18 05:23:43;;;;;;;14.77;9.37;;;;;;;3.85;82.06;102369.78;5046231;28;20240;-68
2022/04/18 05:26:09;;;;;;;12.63;9.50;;;;;;;4.00;82.12;102370.88;5047396;28;20217;-68
2022/04/18 05:28:37;;;;;;;16.63;9.70;;;;;;;4.17;81.82;102366.19;5046982;28;20213;-68
2022/04/18 05:31:05;;;;;;;14.03;8.97;;;;;;;4.31;82.13;102370.53;5048117;28;20193;-69
2022/04/18 05:33:31;;;;;;;12.57;8.90;;;;;;;4.49;81.15;102369.28;5051387;28;20678;-68
2022/04/18 05:36:26;;;;;;;12.80;8.73;;;;;;;4.70;80.53;102363.09;5028614;28;20237;-69
2022/04/18 05:38:52;;;;;;;13.33;8.93;;;;;;;4.88;80.34;102363.44;5048151;28;20186;-68
2022/04/18 05:41:28;;;;;;;11.73;8.67;;;;;;;5.04;79.38;102356.94;5031764;28;20190;-69
2022/04/18 05:43:53;;;;;;;13.03;8.80;;;;;;;5.21;78.90;102361.44;5032927;28;20182;-68
2022/04/18 05:46:28;;;;;;;11.90;8.43;;;;;;;5.36;79.21;102362.44;5047838;28;20243;-68
2022/04/18 05:48:56;;;;;;;10.47;8.50;;;;;;;5.50;79.23;102363.31;5031822;28;20758;-68
2022/04/18 05:51:22;;;;;;;12.17;8.57;;;;;;;5.58;79.57;102368.09;5031686;28;20190;-70
2022/04/18 05:53:48;;;;;;;12.77;8.93;;;;;;;5.71;78.67;102370.63;5031804;28;20197;-70
2022/04/18 05:56:29;;;;;;;13.23;8.77;;;;;;;5.87;78.01;102365.78;5040040;28;20217;-70
2022/04/18 05:59:00;;;;;;;11.77;9.03;;;;;;;6.07;76.96;102356.81;5051609;28;20178;-70
2022/04/18 06:01:44;;;;;;;11.73;8.53;;;;;;;6.25;76.64;102363.91;5051068;28;20197;-70
2022/04/18 06:04:18;;;;;;;11.40;8.43;;;;;;;6.40;75.97;102361.44;5067863;28;20193;-71
2022/04/18 06:06:50;;;;;;;12.70;8.27;;;;;;;6.56;75.18;102364.09;5067273;28;20181;-70
2022/04/18 06:09:17;;;;;;;11.30;8.37;;;;;;;6.68;74.29;102360.59;5051156;28;20701;-70
2022/04/18 06:11:43;;;;;;;16.13;8.57;;;;;;;6.83;73.77;102353.88;5068071;28;20650;-69
2022/04/18 06:14:12;;;;;;;11.50;8.10;;;;;;;7.02;73.81;102361.78;5049701;28;20198;-70
2022/04/18 06:16:42;;;;;;;10.10;7.90;;;;;;;7.20;72.79;102357.75;5067464;28;20272;-70
2022/04/18 06:19:08;;;;;;;11.77;8.80;;;;;;;7.34;71.98;102355.97;5067097;28;20667;-70
2022/04/18 06:21:34;;;;;;;11.10;8.40;;;;;;;7.45;70.60;102358.34;5050523;28;20181;-70
2022/04/18 06:24:00;;;;;;;12.30;8.30;;;;;;;7.46;70.41;102356.69;5062678;28;20798;-69
2022/04/18 06:26:36;;;;;;;10.23;7.57;;;;;;;7.69;70.39;102362.25;5050478;28;20196;-70
2022/04/18 06:29:04;;;;;;;12.23;8.37;;;;;;;7.96;69.46;102362.84;5050275;28;20205;-70
2022/04/18 06:31:30;;;;;;;10.80;7.93;;;;;;;8.13;69.81;102359.53;5049811;28;20196;-70
2022/04/18 06:33:59;;;;;;;12.80;8.10;;;;;;;8.26;68.63;102368.00;5067336;28;20209;-70
2022/04/18 06:36:25;;;;;;;11.40;8.17;;;;;;;8.36;67.94;102366.78;5066706;28;20229;-70
2022/04/18 06:39:08;;;;;;;10.83;7.27;;;;;;;8.57;67.69;102358.56;5067197;28;20174;-70
2022/04/18 06:41:34;;;;;;;10.57;8.23;;;;;;;8.76;67.15;102362.94;5051542;28;20203;-70
2022/04/18 06:44:00;;;;;;;12.00;8.20;;;;;;;8.92;64.75;102365.44;5065814;28;20209;-70
2022/04/18 06:46:29;;;;;;;11.50;8.83;;;;;;;9.13;64.99;102359.72;5049076;28;20576;-70
2022/04/18 06:49:01;;;;;;;10.93;8.57;;;;;;;9.33;65.12;102363.28;5067003;28;20205;-70
2022/04/18 06:51:53;;;;;;;11.63;7.57;;;;;;;9.38;65.23;102357.59;5050010;28;20202;-70
2022/04/18 06:54:37;;;;;;;11.53;7.70;;;;;;;9.60;64.03;102354.38;5050506;28;20409;-69
2022/04/18 06:57:08;;;;;;;10.00;7.87;;;;;;;9.84;62.80;102356.41;5066316;28;20670;-70
2022/04/18 06:59:39;;;;;;;10.57;7.70;;;;;;;9.95;63.64;102362.03;5066905;28;20174;-70
2022/04/18 07:02:05;;;;;;;10.60;7.80;;;;;;;9.99;62.37;102363.88;5050206;28;20674;-70
2022/04/18 07:04:32;;;;;;;12.10;7.63;;;;;;;10.00;61.80;102353.72;5065458;28;20202;-70
2022/04/18 07:06:57;;;;;;;8.87;7.30;;;;;;;10.28;62.22;102354.19;5050160;28;20255;-71
2022/04/18 07:09:23;;;;;;;10.47;7.53;;;;;;;10.53;60.92;102353.59;5066435;28;20178;-70
2022/04/18 07:11:56;;;;;;;11.23;8.20;;;;;;;10.30;62.35;102359.38;5066620;28;21000;-70
2022/04/18 07:14:24;;;;;;;10.73;7.60;;;;;;;10.53;61.62;102362.16;5066045;28;20259;-70
2022/04/18 07:16:53;;;;;;;10.97;7.87;;;;;;;10.25;61.52;102364.31;5066340;28;20212;-70
2022/04/18 07:19:22;;;;;;;11.67;8.37;;;;;;;10.83;60.36;102363.47;5049523;28;20177;-70
2022/04/18 07:21:48;;;;;;;12.30;8.43;;;;;;;10.96;60.13;102363.19;5064909;28;20195;-70
2022/04/18 07:24:14;;;;;;;12.83;8.33;;;;;;;11.38;59.03;102364.09;5049277;28;20273;-70
2022/04/18 07:26:42;;;;;;;11.63;7.27;;;;;;;11.33;57.54;102363.03;5048846;28;20296;-70
2022/04/18 07:29:07;;;;;;;11.43;7.60;;;;;;;10.97;58.89;102367.50;5050969;28;20660;-70
2022/04/18 07:31:33;;;;;;;10.80;7.73;;;;;;;11.34;57.26;102367.34;5049183;28;20189;-69
2022/04/18 07:33:58;;;;;;;10.67;7.63;;;;;;;11.53;56.84;102363.00;5049757;28;20220;-69
2022/04/18 07:36:27;;;;;;;10.60;7.90;;;;;;;11.70;55.58;102358.59;5049007;28;20259;-70
2022/04/18 07:38:53;;;;;;;10.10;7.23;;;;;;;11.88;55.39;102356.69;5053314;28;20608;-71
2022/04/18 07:41:24;;;;;;;11.30;7.73;;;;;;;11.85;55.44;102357.47;5046126;28;20182;-68
2022/04/18 07:43:52;;;;;;;10.27;7.67;;;;;;;12.07;55.67;102351.47;5029268;28;20248;-68
2022/04/18 07:46:18;;;;;;;8.77;7.03;;;;;;;12.28;54.78;102357.38;5029123;28;20218;-69
2022/04/18 07:48:46;;;;;;;9.70;7.60;;;;;;;12.51;53.85;102351.38;5028657;28;20206;-68
2022/04/18 07:53:56;;;;;;;11.33;7.77;;;;;;;12.93;53.92;102346.88;5029952;28;20600;-68
2022/04/18 07:56:22;;;;;;;9.47;7.77;;;;;;;12.76;52.08;102349.72;5026574;28;20235;-69
2022/04/18 07:58:48;;;;;;;9.97;8.00;;;;;;;12.81;53.41;102355.91;5068227;28;20676;-68
2022/04/18 08:01:21;;;;;;;10.93;7.53;;;;;;;13.55;51.47;102343.00;5054043;28;20254;-69
2022/04/18 08:03:47;;;;;;;10.23;7.00;;;;;;;13.38;52.39;102344.16;5064406;28;20181;-68
2022/04/18 08:06:13;;;;;;;10.77;7.67;;;;;;;13.60;52.58;102345.69;5054322;28;20274;-69
2022/04/18 08:08:49;;;;;;;10.93;8.87;;;;;;;13.76;52.28;102348.78;5048562;28;20213;-69
2022/04/18 08:11:15;;;;;;;9.47;7.93;;;;;;;14.11;52.52;102336.97;5048482;28;20189;-69
2022/04/18 08:13:45;;;;;;;9.63;7.73;;;;;;;13.58;52.55;102337.06;5055489;28;20276;-68
2022/04/18 08:16:39;;;;;;;11.23;7.87;;;;;;;14.16;50.96;102332.81;5069568;28;20650;-68
2022/04/18 08:19:23;;;;;;;10.70;8.10;;;;;;;14.75;50.34;102335.38;5068929;28;20681;-68
2022/04/18 08:21:48;;;;;;;10.33;6.87;;;;;;;15.06;49.05;102331.03;5057369;28;20221;-69
2022/04/18 08:24:14;;;;;;;11.93;8.37;;;;;;;15.30;47.73;102328.19;5065009;28;20267;-69
2022/04/18 08:26:58;;;;;;;10.20;7.80;;;;;;;15.47;46.75;102321.75;5049707;28;20273;-69
2022/04/18 08:29:26;;;;;;;10.87;7.60;;;;;;;15.71;46.21;102328.31;5063827;28;20212;-68
2022/04/18 08:32:07;;;;;;;10.50;7.30;;;;;;;15.88;45.57;102331.31;5066595;28;20189;-69
2022/04/18 08:34:33;;;;;;;9.97;7.83;;;;;;;15.60;46.26;102328.91;5067990;28;20209;-68
2022/04/18 08:36:58;;;;;;;8.90;7.60;;;;;;;15.75;46.13;102326.69;5068013;28;20599;-69
2022/04/18 08:39:31;;;;;;;9.80;7.70;;;;;;;16.17;45.63;102319.84;5067660;28;20565;-69
2022/04/18 08:42:11;;;;;;;10.33;7.90;;;;;;;16.33;43.28;102327.94;5068088;28;20696;-69
2022/04/18 08:44:42;;;;;;;9.13;7.33;;;;;;;16.65;44.24;102326.88;5051539;28;20208;-69
2022/04/18 08:47:09;;;;;;;11.90;7.30;;;;;;;16.58;43.27;102319.84;5052172;28;20667;-69
2022/04/18 08:55:16;;;;;;;10.67;7.53;;;;;;;16.41;44.32;102310.91;5047876;28;20706;-69
2022/04/18 08:57:42;;;;;;;9.53;7.60;;;;;;;16.96;41.14;102308.47;5039905;28;20221;-68
2022/04/18 09:00:09;;;;;;;8.40;7.10;;;;;;;17.09;43.81;102310.41;5047759;28;20193;-70
2022/04/18 09:02:39;;;;;;;11.03;7.37;;;;;;;17.59;41.21;102309.50;5047306;28;20212;-70
2022/04/18 09:05:16;;;;;;;9.87;7.47;;;;;;;17.73;39.84;102299.34;5058478;28;20208;-70
2022/04/18 09:07:43;;;;;;;10.80;7.37;;;;;;;17.54;38.67;102292.16;5067005;28;20213;-70
2022/04/18 09:10:10;;;;;;;10.03;7.53;;;;;;;17.45;39.50;102295.47;5067710;28;20547;-70
2022/04/18 09:12:40;;;;;;;8.07;6.90;;;;;;;17.28;39.84;102296.03;5059173;28;20194;-71
2022/04/18 09:15:29;;;;;;;9.30;7.13;;;;;;;17.16;40.63;102291.53;5058914;28;20729;-70
2022/04/18 09:18:17;;;;;;;8.00;7.10;;;;;;;17.55;38.97;102291.31;5051093;28;20188;-70
2022/04/18 09:20:53;;;;;;;10.57;7.60;;;;;;;17.87;38.51;102285.69;5047119;28;20185;-70
2022/04/18 09:23:22;;;;;;;9.17;7.07;;;;;;;18.25;37.52;102279.28;5031149;28;20229;-71
2022/04/18 09:25:56;;;;;;;8.20;6.90;;;;;;;18.46;37.13;102270.84;5047043;28;20214;-71
2022/04/18 09:28:24;;;;;;;8.17;7.07;;;;;;;18.00;36.31;102276.38;5047036;28;20593;-70
2022/04/18 09:31:01;;;;;;;10.07;7.23;;;;;;;17.60;37.36;102276.69;5047069;28;20246;-71
2022/04/18 09:33:37;;;;;;;9.27;6.80;;;;;;;18.32;37.34;102267.22;5047396;28;20661;-69
2022/04/18 09:36:10;;;;;;;9.27;6.93;;;;;;;18.99;37.33;102260.13;5046985;28;20206;-70
2022/04/18 09:38:41;;;;;;;10.37;6.83;;;;;;;18.78;35.27;102257.34;5045765;28;20288;-70
2022/04/18 09:41:21;;;;;;;11.23;7.77;;;;;;;18.89;36.47;102257.44;5049181;28;20181;-70
2022/04/18 09:43:52;;;;;;;10.37;7.23;;;;;;;18.26;36.11;102252.47;5047058;28;20230;-70
2022/04/18 09:46:22;;;;;;;10.73;7.27;;;;;;;18.82;35.25;102255.63;5027167;28;20225;-70
2022/04/18 09:49:02;;;;;;;9.60;6.80;;;;;;;18.07;35.87;102249.66;5051890;28;20204;-72
2022/04/18 09:51:30;;;;;;;10.67;6.77;;;;;;;18.93;35.48;102247.06;5048367;28;20190;-70
2022/04/18 09:54:08;;;;;;;9.03;7.10;;;;;;;19.63;34.19;102238.88;5045960;28;20286;-71
2022/04/18 09:56:33;;;;;;;8.70;6.53;;;;;;;19.98;33.76;102239.91;5048375;28;20255;-71
2022/04/18 09:59:00;;;;;;;10.00;7.10;;;;;;;19.86;33.44;102234.66;5047950;28;20185;-70
2022/04/18 10:01:27;;;;;;;9.60;7.13;;;;;;;19.29;33.98;102242.16;5042198;28;20237;-71
2022/04/18 10:03:53;;;;;;;9.47;7.20;;;;;;;19.80;32.59;102226.00;5052635;28;20190;-71
2022/04/18 10:06:20;;;;;;;9.03;7.00;;;;;;;19.85;34.45;102225.13;5046657;28;20255;-71
2022/04/18 10:08:45;;;;;;;12.20;6.53;;;;;;;20.57;31.98;102219.25;5041899;28;20241;-70
2022/04/18 10:11:11;;;;;;;11.00;6.93;;;;;;;20.36;32.72;102220.09;5046655;28;20198;-70
2022/04/18 10:13:37;;;;;;;8.63;6.33;;;;;;;20.43;31.06;102219.25;5044937;28;20201;-70
2022/04/18 10:16:05;;;;;;;9.73;6.03;;;;;;;20.91;29.99;102216.69;5027692;28;20586;-72
2022/04/18 10:18:37;;;;;;;10.63;6.97;;;;;;;21.06;31.63;102211.44;5030602;28;20279;-70
2022/04/18 10:21:17;;;;;;;8.27;6.03;;;;;;;21.48;29.88;102208.75;5054811;28;20682;-71
2022/04/18 10:24:20;;;;;;;10.47;7.50;;;;;;;21.32;29.21;102212.25;5051048;28;20540;-71
2022/04/18 10:27:10;;;;;;;10.10;6.60;;;;;;;21.46;28.90;102207.88;5051551;28;20189;-71
2022/04/18 10:29:49;;;;;;;9.00;6.80;;;;;;;20.96;28.99;102211.47;5048994;28;20613;-71
2022/04/18 10:32:20;;;;;;;9.07;7.00;;;;;;;21.10;30.67;102205.34;5051526;28;20177;-70
2022/04/18 10:34:49;;;;;;;9.17;6.50;;;;;;;21.60;29.68;102200.88;5050921;28;20217;-71
2022/04/18 10:37:15;;;;;;;10.43;7.10;;;;;;;21.71;29.47;102195.66;5051113;28;20170;-71
2022/04/18 10:39:40;;;;;;;7.37;5.87;;;;;;;21.49;29.45;102193.97;5050572;28;20277;-71
2022/04/18 10:42:21;;;;;;;7.60;4.97;;;;;;;21.71;27.68;102182.59;5051291;28;20185;-71
2022/04/18 10:45:08;;;;;;;7.60;5.30;;;;;;;21.97;27.40;102181.59;5049770;28;20224;-71
2022/04/18 10:47:55;;;;;;;8.07;5.27;;;;;;;22.27;26.43;102184.03;5067890;28;20272;-71
2022/04/18 10:50:25;;;;;;;5.63;4.57;;;;;;;22.24;26.27;102177.94;5054849;28;20189;-73
2022/04/18 10:53:34;;;;;;;6.97;4.63;;;;;;;21.98;26.66;102187.69;5069702;28;20212;-72
2022/04/18 10:55:59;;;;;;;6.10;4.30;;;;;;;22.13;25.92;102174.53;5068192;28;20227;-73
2022/04/18 10:58:36;;;;;;;6.43;4.40;;;;;;;22.32;26.88;102181.38;5050357;28;20185;-72
2022/04/18 11:01:09;;;;;;;6.80;4.40;;;;;;;22.66;27.17;102176.78;5051065;28;20181;-72
2022/04/18 11:03:57;;;;;;;6.50;4.60;;;;;;;22.18;27.39;102172.75;5049783;28;20193;-72
2022/04/18 11:06:22;;;;;;;6.40;4.57;;;;;;;22.53;27.62;102167.31;5031224;28;20298;-72
2022/04/18 11:08:58;;;;;;;5.87;4.10;;;;;;;22.55;27.46;102165.56;5034113;28;20785;-72
2022/04/18 11:11:23;;;;;;;7.07;4.73;;;;;;;22.25;26.41;102164.88;5058387;28;20200;-71
2022/04/18 11:13:50;;;;;;;6.70;4.70;;;;;;;21.60;27.58;102161.75;5070415;28;20196;-71
2022/04/18 11:16:24;;;;;;;6.20;3.80;;;;;;;21.22;26.67;102163.66;5053473;28;20352;-71
2022/04/18 11:19:20;;;;;;;5.27;3.90;;;;;;;20.52;27.12;102155.91;5049206;28;20330;-71
2022/04/18 11:21:59;;;;;;;6.77;3.80;;;;;;;20.75;28.40;102157.63;5041197;28;20229;-71
2022/04/18 11:24:34;;;;;;;5.57;4.00;;;;;;;21.12;28.01;102151.53;5061321;28;20247;-71
2022/04/18 11:27:00;;;;;;;5.00;3.43;;;;;;;20.66;28.04;102157.66;5067923;28;20200;-71
2022/04/18 11:29:28;;;;;;;3.43;2.97;;;;;;;20.63;27.94;102151.59;5049365;28;20301;-72
2022/04/18 11:31:54;;;;;;;5.17;3.30;;;;;;;20.46;28.73;102153.31;5065908;28;20670;-71
2022/04/18 11:34:23;;;;;;;3.87;2.90;;;;;;;21.41;28.89;102148.78;5050738;28;20206;-71
2022/04/18 11:36:48;;;;;;;5.07;3.73;;;;;;;20.52;28.21;102150.69;5049472;28;20205;-72
2022/04/18 11:39:15;;;;;;;5.07;2.90;;;;;;;21.70;28.06;102140.00;5047193;28;20179;-72
2022/04/18 11:41:41;;;;;;;4.33;2.93;;;;;;;21.02;28.16;102142.00;5068185;28;20201;-72
2022/04/18 11:44:07;;;;;;;5.33;3.10;;;;;;;21.57;27.36;102133.09;5050502;28;20196;-71
2022/04/18 11:46:32;;;;;;;3.70;2.83;;;;;;;21.49;27.55;102142.69;5050182;28;20221;-71
2022/04/18 11:48:57;;;;;;;3.97;2.23;;;;;;;21.35;27.99;102122.75;5050466;28;20289;-71
2022/04/18 11:51:39;;;;;;;3.13;2.60;;;;;;;21.82;28.88;102132.13;5048333;28;20288;-72